sensor_id;sensor_type;location;lat;lon;timestamp;P1;durP1;ratioP1;P2;durP2;ratioP2
31808;SDS011;18379;48.208;-1.518;2023-05-20T00:00:16;49.87;;;45.80;;
31808;SDS011;18379;48.208;-1.518;2023-05-20T00:05:17;51.40;;;46.90;;
31808;SDS011;18379;48.208;-1.518;2023-05-20T00:10:18;53.00;;;48.00;;
31808;SDS011;18379;48.208;-1.518;2023-05-20T00:15:18;52.50;;;47.87;;
31808;SDS011;18379;48.208;-1.518;2023-05-20T00:20:19;51.97;;;47.50;;
31808;SDS011;18379;48.208;-1.518;2023-05-20T00:25:20;52.23;;;47.73;;
31808;SDS011;18379;48.208;-1.518;2023-05-20T00:30:21;52.73;;;47.47;;
31808;SDS011;18379;48.208;-1.518;2023-05-20T00:35:22;53.70;;;48.77;;
31808;SDS011;18379;48.208;-1.518;2023-05-20T00:40:22;52.53;;;47.73;;
31808;SDS011;18379;48.208;-1.518;2023-05-20T00:45:24;53.33;;;48.63;;
31808;SDS011;18379;48.208;-1.518;2023-05-20T00:50:25;53.97;;;48.87;;
31808;SDS011;18379;48.208;-1.518;2023-05-20T00:55:26;52.27;;;47.77;;
31808;SDS011;18379;48.208;-1.518;2023-05-20T01:00:27;54.97;;;49.87;;
31808;SDS011;18379;48.208;-1.518;2023-05-20T01:05:28;53.23;;;48.20;;
31808;SDS011;18379;48.208;-1.518;2023-05-20T01:10:29;53.83;;;48.83;;
31808;SDS011;18379;48.208;-1.518;2023-05-20T01:15:31;53.77;;;48.57;;
31808;SDS011;18379;48.208;-1.518;2023-05-20T01:20:32;53.77;;;48.37;;
31808;SDS011;18379;48.208;-1.518;2023-05-20T01:25:34;51.10;;;46.47;;
31808;SDS011;18379;48.208;-1.518;2023-05-20T01:30:38;50.77;;;46.37;;
31808;SDS011;18379;48.208;-1.518;2023-05-20T01:35:43;51.13;;;46.70;;
31808;SDS011;18379;48.208;-1.518;2023-05-20T01:40:45;50.83;;;46.07;;
31808;SDS011;18379;48.208;-1.518;2023-05-20T01:45:48;53.40;;;48.17;;
31808;SDS011;18379;48.208;-1.518;2023-05-20T01:50:49;53.63;;;48.63;;
31808;SDS011;18379;48.208;-1.518;2023-05-20T01:55:50;54.40;;;49.03;;
31808;SDS011;18379;48.208;-1.518;2023-05-20T02:00:51;56.03;;;50.33;;
31808;SDS011;18379;48.208;-1.518;2023-05-20T02:05:51;55.50;;;50.03;;
31808;SDS011;18379;48.208;-1.518;2023-05-20T02:10:52;53.83;;;48.40;;
31808;SDS011;18379;48.208;-1.518;2023-05-20T02:15:53;54.40;;;48.83;;
31808;SDS011;18379;48.208;-1.518;2023-05-20T02:20:54;54.47;;;49.23;;
31808;SDS011;18379;48.208;-1.518;2023-05-20T02:25:55;53.93;;;48.37;;
31808;SDS011;18379;48.208;-1.518;2023-05-20T02:30:55;56.67;;;50.17;;
31808;SDS011;18379;48.208;-1.518;2023-05-20T02:35:56;54.90;;;49.30;;
31808;SDS011;18379;48.208;-1.518;2023-05-20T02:40:57;55.33;;;49.93;;
31808;SDS011;18379;48.208;-1.518;2023-05-20T02:45:59;55.33;;;49.70;;
31808;SDS011;18379;48.208;-1.518;2023-05-20T02:50:59;55.37;;;49.47;;
31808;SDS011;18379;48.208;-1.518;2023-05-20T02:56:01;56.43;;;49.97;;
31808;SDS011;18379;48.208;-1.518;2023-05-20T03:01:03;54.33;;;48.57;;
31808;SDS011;18379;48.208;-1.518;2023-05-20T03:06:04;54.97;;;49.20;;
31808;SDS011;18379;48.208;-1.518;2023-05-20T03:11:05;52.47;;;47.30;;
31808;SDS011;18379;48.208;-1.518;2023-05-20T03:16:06;54.03;;;48.57;;
31808;SDS011;18379;48.208;-1.518;2023-05-20T03:21:07;52.17;;;47.13;;
31808;SDS011;18379;48.208;-1.518;2023-05-20T03:26:08;53.40;;;47.93;;
31808;SDS011;18379;48.208;-1.518;2023-05-20T03:31:09;52.27;;;47.03;;
31808;SDS011;18379;48.208;-1.518;2023-05-20T03:36:09;53.87;;;48.33;;
31808;SDS011;18379;48.208;-1.518;2023-05-20T03:41:10;51.77;;;46.77;;
31808;SDS011;18379;48.208;-1.518;2023-05-20T03:46:11;52.57;;;47.13;;
31808;SDS011;18379;48.208;-1.518;2023-05-20T03:51:12;53.57;;;48.13;;
31808;SDS011;18379;48.208;-1.518;2023-05-20T03:56:12;54.50;;;47.93;;
31808;SDS011;18379;48.208;-1.518;2023-05-20T04:01:13;54.07;;;48.57;;
31808;SDS011;18379;48.208;-1.518;2023-05-20T04:06:14;53.67;;;47.90;;
31808;SDS011;18379;48.208;-1.518;2023-05-20T04:11:15;53.67;;;47.90;;
31808;SDS011;18379;48.208;-1.518;2023-05-20T04:16:16;54.87;;;48.13;;
31808;SDS011;18379;48.208;-1.518;2023-05-20T04:21:20;60.83;;;51.70;;
31808;SDS011;18379;48.208;-1.518;2023-05-20T04:26:21;60.80;;;50.73;;
31808;SDS011;18379;48.208;-1.518;2023-05-20T04:31:22;60.10;;;50.77;;
31808;SDS011;18379;48.208;-1.518;2023-05-20T04:36:25;58.47;;;50.43;;
31808;SDS011;18379;48.208;-1.518;2023-05-20T04:41:29;59.00;;;51.70;;
31808;SDS011;18379;48.208;-1.518;2023-05-20T04:46:30;56.40;;;50.00;;
31808;SDS011;18379;48.208;-1.518;2023-05-20T04:51:32;60.87;;;51.07;;
31808;SDS011;18379;48.208;-1.518;2023-05-20T04:56:34;57.27;;;51.13;;
31808;SDS011;18379;48.208;-1.518;2023-05-20T05:01:35;58.53;;;49.53;;
31808;SDS011;18379;48.208;-1.518;2023-05-20T05:06:36;62.77;;;49.67;;
31808;SDS011;18379;48.208;-1.518;2023-05-20T05:11:37;55.33;;;48.50;;
31808;SDS011;18379;48.208;-1.518;2023-05-20T05:16:38;54.90;;;48.47;;
31808;SDS011;18379;48.208;-1.518;2023-05-20T05:21:39;55.60;;;48.43;;
31808;SDS011;18379;48.208;-1.518;2023-05-20T05:26:39;53.70;;;48.07;;
31808;SDS011;18379;48.208;-1.518;2023-05-20T05:31:40;53.90;;;48.10;;
31808;SDS011;18379;48.208;-1.518;2023-05-20T05:36:41;54.47;;;48.30;;
31808;SDS011;18379;48.208;-1.518;2023-05-20T05:41:41;56.00;;;48.23;;
31808;SDS011;18379;48.208;-1.518;2023-05-20T05:46:42;53.57;;;48.27;;
31808;SDS011;18379;48.208;-1.518;2023-05-20T05:51:43;54.70;;;49.00;;
31808;SDS011;18379;48.208;-1.518;2023-05-20T05:56:44;54.70;;;48.97;;
31808;SDS011;18379;48.208;-1.518;2023-05-20T06:01:44;55.10;;;49.27;;
31808;SDS011;18379;48.208;-1.518;2023-05-20T06:06:46;55.17;;;49.20;;
31808;SDS011;18379;48.208;-1.518;2023-05-20T06:11:47;62.43;;;49.37;;
31808;SDS011;18379;48.208;-1.518;2023-05-20T06:16:48;55.40;;;49.53;;
31808;SDS011;18379;48.208;-1.518;2023-05-20T06:21:49;55.83;;;50.10;;
31808;SDS011;18379;48.208;-1.518;2023-05-20T06:26:50;55.87;;;50.20;;
31808;SDS011;18379;48.208;-1.518;2023-05-20T06:31:51;59.23;;;53.27;;
31808;SDS011;18379;48.208;-1.518;2023-05-20T06:36:52;58.87;;;52.03;;
31808;SDS011;18379;48.208;-1.518;2023-05-20T06:41:53;59.57;;;53.17;;
31808;SDS011;18379;48.208;-1.518;2023-05-20T06:46:54;59.00;;;53.17;;
31808;SDS011;18379;48.208;-1.518;2023-05-20T06:51:55;57.87;;;52.13;;
31808;SDS011;18379;48.208;-1.518;2023-05-20T06:56:55;59.07;;;53.37;;
31808;SDS011;18379;48.208;-1.518;2023-05-20T07:01:56;58.80;;;53.00;;
31808;SDS011;18379;48.208;-1.518;2023-05-20T07:06:57;58.50;;;52.33;;
31808;SDS011;18379;48.208;-1.518;2023-05-20T07:11:57;58.60;;;52.83;;
31808;SDS011;18379;48.208;-1.518;2023-05-20T07:16:58;58.33;;;53.00;;
31808;SDS011;18379;48.208;-1.518;2023-05-20T07:21:59;58.73;;;52.80;;
31808;SDS011;18379;48.208;-1.518;2023-05-20T07:27:00;70.17;;;63.47;;
31808;SDS011;18379;48.208;-1.518;2023-05-20T07:32:01;59.30;;;53.63;;
31808;SDS011;18379;48.208;-1.518;2023-05-20T07:37:02;72.10;;;64.90;;
31808;SDS011;18379;48.208;-1.518;2023-05-20T07:42:03;71.60;;;64.30;;
31808;SDS011;18379;48.208;-1.518;2023-05-20T07:47:04;69.90;;;62.97;;
31808;SDS011;18379;48.208;-1.518;2023-05-20T07:52:06;58.90;;;53.77;;
31808;SDS011;18379;48.208;-1.518;2023-05-20T07:57:08;59.80;;;54.13;;
31808;SDS011;18379;48.208;-1.518;2023-05-20T08:02:12;59.77;;;54.00;;
31808;SDS011;18379;48.208;-1.518;2023-05-20T08:07:13;56.90;;;51.87;;
31808;SDS011;18379;48.208;-1.518;2023-05-20T08:12:14;55.33;;;50.27;;
31808;SDS011;18379;48.208;-1.518;2023-05-20T08:17:16;56.47;;;51.40;;
31808;SDS011;18379;48.208;-1.518;2023-05-20T08:22:17;56.87;;;51.87;;
31808;SDS011;18379;48.208;-1.518;2023-05-20T08:27:24;60.57;;;54.97;;
31808;SDS011;18379;48.208;-1.518;2023-05-20T08:32:25;59.97;;;54.23;;
31808;SDS011;18379;48.208;-1.518;2023-05-20T08:37:27;59.73;;;54.27;;
31808;SDS011;18379;48.208;-1.518;2023-05-20T08:42:30;59.47;;;54.40;;
31808;SDS011;18379;48.208;-1.518;2023-05-20T08:47:31;59.27;;;54.13;;
31808;SDS011;18379;48.208;-1.518;2023-05-20T08:52:32;65.47;;;59.70;;
31808;SDS011;18379;48.208;-1.518;2023-05-20T08:57:36;58.30;;;53.27;;
31808;SDS011;18379;48.208;-1.518;2023-05-20T09:02:38;59.20;;;54.13;;
31808;SDS011;18379;48.208;-1.518;2023-05-20T09:07:40;57.00;;;51.47;;
31808;SDS011;18379;48.208;-1.518;2023-05-20T09:12:42;55.93;;;51.00;;
31808;SDS011;18379;48.208;-1.518;2023-05-20T09:17:43;56.17;;;51.27;;
31808;SDS011;18379;48.208;-1.518;2023-05-20T09:22:43;55.17;;;50.90;;
31808;SDS011;18379;48.208;-1.518;2023-05-20T09:27:44;54.57;;;50.40;;
31808;SDS011;18379;48.208;-1.518;2023-05-20T09:32:57;55.67;;;51.03;;
31808;SDS011;18379;48.208;-1.518;2023-05-20T09:37:58;56.67;;;52.13;;
31808;SDS011;18379;48.208;-1.518;2023-05-20T09:43:03;57.60;;;53.10;;
31808;SDS011;18379;48.208;-1.518;2023-05-20T09:48:08;54.73;;;50.57;;
31808;SDS011;18379;48.208;-1.518;2023-05-20T09:53:12;54.67;;;49.97;;
31808;SDS011;18379;48.208;-1.518;2023-05-20T09:58:16;55.30;;;50.53;;
31808;SDS011;18379;48.208;-1.518;2023-05-20T10:03:22;55.07;;;50.70;;
31808;SDS011;18379;48.208;-1.518;2023-05-20T10:24:43;61.33;;;55.70;;
31808;SDS011;18379;48.208;-1.518;2023-05-20T10:29:53;55.53;;;50.83;;
31808;SDS011;18379;48.208;-1.518;2023-05-20T10:34:59;58.23;;;53.80;;
31808;SDS011;18379;48.208;-1.518;2023-05-20T10:40:11;57.93;;;53.27;;
31808;SDS011;18379;48.208;-1.518;2023-05-20T10:45:28;55.90;;;51.80;;
31808;SDS011;18379;48.208;-1.518;2023-05-20T10:50:35;59.50;;;54.53;;
31808;SDS011;18379;48.208;-1.518;2023-05-20T10:55:39;58.77;;;53.83;;
31808;SDS011;18379;48.208;-1.518;2023-05-20T11:00:41;55.40;;;51.13;;
31808;SDS011;18379;48.208;-1.518;2023-05-20T11:05:46;56.00;;;51.83;;
31808;SDS011;18379;48.208;-1.518;2023-05-20T11:10:48;56.10;;;51.70;;
31808;SDS011;18379;48.208;-1.518;2023-05-20T11:15:50;56.27;;;51.97;;
31808;SDS011;18379;48.208;-1.518;2023-05-20T11:20:50;57.50;;;53.00;;
31808;SDS011;18379;48.208;-1.518;2023-05-20T11:25:55;59.00;;;54.43;;
31808;SDS011;18379;48.208;-1.518;2023-05-20T11:30:56;61.77;;;56.60;;
31808;SDS011;18379;48.208;-1.518;2023-05-20T11:35:57;58.63;;;53.80;;
31808;SDS011;18379;48.208;-1.518;2023-05-20T11:40:59;59.37;;;54.73;;
31808;SDS011;18379;48.208;-1.518;2023-05-20T11:46:00;57.80;;;53.30;;
31808;SDS011;18379;48.208;-1.518;2023-05-20T11:51:02;59.03;;;54.53;;
31808;SDS011;18379;48.208;-1.518;2023-05-20T11:56:05;71.03;;;64.90;;
31808;SDS011;18379;48.208;-1.518;2023-05-20T12:01:05;59.10;;;54.50;;
31808;SDS011;18379;48.208;-1.518;2023-05-20T12:06:12;57.53;;;53.30;;
31808;SDS011;18379;48.208;-1.518;2023-05-20T12:11:20;56.27;;;51.93;;
31808;SDS011;18379;48.208;-1.518;2023-05-20T12:16:21;56.13;;;52.13;;
31808;SDS011;18379;48.208;-1.518;2023-05-20T12:21:22;57.73;;;52.73;;
31808;SDS011;18379;48.208;-1.518;2023-05-20T12:26:24;58.07;;;53.57;;
31808;SDS011;18379;48.208;-1.518;2023-05-20T12:31:29;58.13;;;53.70;;
31808;SDS011;18379;48.208;-1.518;2023-05-20T12:36:30;57.90;;;53.63;;
31808;SDS011;18379;48.208;-1.518;2023-05-20T12:41:31;60.13;;;55.63;;
31808;SDS011;18379;48.208;-1.518;2023-05-20T12:46:34;58.17;;;53.53;;
31808;SDS011;18379;48.208;-1.518;2023-05-20T12:51:36;60.73;;;55.17;;
31808;SDS011;18379;48.208;-1.518;2023-05-20T12:56:39;54.57;;;50.77;;
31808;SDS011;18379;48.208;-1.518;2023-05-20T13:01:42;55.10;;;50.97;;
31808;SDS011;18379;48.208;-1.518;2023-05-20T13:06:43;55.90;;;51.50;;
31808;SDS011;18379;48.208;-1.518;2023-05-20T13:11:45;55.27;;;51.27;;
31808;SDS011;18379;48.208;-1.518;2023-05-20T13:16:48;55.13;;;50.93;;
31808;SDS011;18379;48.208;-1.518;2023-05-20T13:21:49;56.40;;;52.13;;
31808;SDS011;18379;48.208;-1.518;2023-05-20T13:26:53;58.17;;;53.60;;
31808;SDS011;18379;48.208;-1.518;2023-05-20T13:31:54;62.87;;;57.83;;
31808;SDS011;18379;48.208;-1.518;2023-05-20T13:36:56;68.07;;;62.47;;
31808;SDS011;18379;48.208;-1.518;2023-05-20T13:41:57;67.53;;;62.10;;
31808;SDS011;18379;48.208;-1.518;2023-05-20T13:46:59;67.57;;;62.17;;
31808;SDS011;18379;48.208;-1.518;2023-05-20T13:52:00;68.07;;;62.83;;
31808;SDS011;18379;48.208;-1.518;2023-05-20T13:57:01;70.00;;;63.93;;
31808;SDS011;18379;48.208;-1.518;2023-05-20T14:02:06;69.87;;;64.63;;
31808;SDS011;18379;48.208;-1.518;2023-05-20T14:07:07;66.23;;;60.90;;
31808;SDS011;18379;48.208;-1.518;2023-05-20T14:12:08;64.37;;;59.23;;
31808;SDS011;18379;48.208;-1.518;2023-05-20T14:17:09;58.73;;;54.40;;
31808;SDS011;18379;48.208;-1.518;2023-05-20T14:22:10;57.07;;;52.87;;
31808;SDS011;18379;48.208;-1.518;2023-05-20T14:27:14;57.20;;;52.50;;
31808;SDS011;18379;48.208;-1.518;2023-05-20T14:32:15;57.10;;;52.57;;
31808;SDS011;18379;48.208;-1.518;2023-05-20T14:37:16;57.77;;;53.13;;
31808;SDS011;18379;48.208;-1.518;2023-05-20T14:42:20;57.17;;;52.77;;
31808;SDS011;18379;48.208;-1.518;2023-05-20T14:47:21;57.50;;;53.20;;
31808;SDS011;18379;48.208;-1.518;2023-05-20T14:52:23;59.00;;;54.20;;
31808;SDS011;18379;48.208;-1.518;2023-05-20T14:57:24;62.73;;;57.90;;
31808;SDS011;18379;48.208;-1.518;2023-05-20T15:02:25;58.57;;;53.73;;
31808;SDS011;18379;48.208;-1.518;2023-05-20T15:07:26;59.37;;;55.00;;
31808;SDS011;18379;48.208;-1.518;2023-05-20T15:12:27;57.53;;;53.10;;
31808;SDS011;18379;48.208;-1.518;2023-05-20T15:17:35;58.13;;;53.77;;
31808;SDS011;18379;48.208;-1.518;2023-05-20T15:22:39;57.17;;;52.70;;
31808;SDS011;18379;48.208;-1.518;2023-05-20T15:27:44;55.43;;;51.53;;
31808;SDS011;18379;48.208;-1.518;2023-05-20T15:32:46;55.87;;;51.03;;
31808;SDS011;18379;48.208;-1.518;2023-05-20T15:37:52;56.97;;;52.67;;
31808;SDS011;18379;48.208;-1.518;2023-05-20T15:42:54;58.37;;;53.90;;
31808;SDS011;18379;48.208;-1.518;2023-05-20T15:48:00;58.07;;;53.67;;
31808;SDS011;18379;48.208;-1.518;2023-05-20T15:53:07;58.90;;;54.70;;
31808;SDS011;18379;48.208;-1.518;2023-05-20T15:58:23;56.53;;;52.37;;
31808;SDS011;18379;48.208;-1.518;2023-05-20T16:03:33;59.03;;;54.63;;
31808;SDS011;18379;48.208;-1.518;2023-05-20T16:08:55;58.83;;;54.33;;
31808;SDS011;18379;48.208;-1.518;2023-05-20T16:13:57;59.53;;;54.80;;
31808;SDS011;18379;48.208;-1.518;2023-05-20T16:18:58;58.87;;;54.20;;
31808;SDS011;18379;48.208;-1.518;2023-05-20T16:24:00;58.30;;;53.90;;
31808;SDS011;18379;48.208;-1.518;2023-05-20T16:29:01;58.73;;;54.43;;
31808;SDS011;18379;48.208;-1.518;2023-05-20T16:34:02;58.27;;;54.00;;
31808;SDS011;18379;48.208;-1.518;2023-05-20T16:39:06;57.03;;;52.83;;
31808;SDS011;18379;48.208;-1.518;2023-05-20T16:44:25;57.30;;;53.07;;
31808;SDS011;18379;48.208;-1.518;2023-05-20T16:49:26;58.83;;;54.47;;
31808;SDS011;18379;48.208;-1.518;2023-05-20T16:54:27;58.67;;;54.13;;
31808;SDS011;18379;48.208;-1.518;2023-05-20T16:59:31;58.53;;;54.03;;
31808;SDS011;18379;48.208;-1.518;2023-05-20T17:04:33;59.50;;;54.73;;
31808;SDS011;18379;48.208;-1.518;2023-05-20T17:09:36;59.03;;;54.27;;
31808;SDS011;18379;48.208;-1.518;2023-05-20T17:14:38;56.93;;;52.90;;
31808;SDS011;18379;48.208;-1.518;2023-05-20T17:19:40;63.07;;;58.17;;
31808;SDS011;18379;48.208;-1.518;2023-05-20T17:24:41;57.30;;;53.20;;
31808;SDS011;18379;48.208;-1.518;2023-05-20T17:29:49;56.70;;;52.63;;
31808;SDS011;18379;48.208;-1.518;2023-05-20T17:35:42;58.03;;;53.83;;
31808;SDS011;18379;48.208;-1.518;2023-05-20T17:40:46;57.17;;;52.93;;
31808;SDS011;18379;48.208;-1.518;2023-05-20T17:46:01;55.40;;;51.43;;
31808;SDS011;18379;48.208;-1.518;2023-05-20T17:51:12;55.90;;;52.10;;
31808;SDS011;18379;48.208;-1.518;2023-05-20T17:56:19;56.93;;;52.47;;
31808;SDS011;18379;48.208;-1.518;2023-05-20T18:01:25;54.17;;;50.43;;
31808;SDS011;18379;48.208;-1.518;2023-05-20T18:06:52;53.73;;;49.93;;
31808;SDS011;18379;48.208;-1.518;2023-05-20T18:11:53;54.20;;;50.67;;
31808;SDS011;18379;48.208;-1.518;2023-05-20T18:16:54;53.10;;;49.80;;
31808;SDS011;18379;48.208;-1.518;2023-05-20T18:22:00;54.23;;;50.50;;
31808;SDS011;18379;48.208;-1.518;2023-05-20T18:27:01;55.03;;;51.30;;
31808;SDS011;18379;48.208;-1.518;2023-05-20T18:32:02;55.67;;;51.57;;
31808;SDS011;18379;48.208;-1.518;2023-05-20T18:37:03;56.23;;;52.23;;
31808;SDS011;18379;48.208;-1.518;2023-05-20T18:42:05;55.93;;;51.70;;
31808;SDS011;18379;48.208;-1.518;2023-05-20T18:47:06;55.33;;;51.40;;
31808;SDS011;18379;48.208;-1.518;2023-05-20T18:52:07;55.00;;;51.30;;
31808;SDS011;18379;48.208;-1.518;2023-05-20T18:57:32;54.77;;;50.73;;
31808;SDS011;18379;48.208;-1.518;2023-05-20T19:02:39;55.03;;;51.13;;
31808;SDS011;18379;48.208;-1.518;2023-05-20T19:07:41;55.03;;;51.23;;
31808;SDS011;18379;48.208;-1.518;2023-05-20T19:12:41;57.80;;;52.63;;
31808;SDS011;18379;48.208;-1.518;2023-05-20T19:17:42;54.97;;;50.40;;
31808;SDS011;18379;48.208;-1.518;2023-05-20T19:22:43;54.30;;;50.03;;
31808;SDS011;18379;48.208;-1.518;2023-05-20T19:27:45;54.47;;;50.47;;
31808;SDS011;18379;48.208;-1.518;2023-05-20T19:32:46;57.30;;;52.87;;
31808;SDS011;18379;48.208;-1.518;2023-05-20T19:37:47;52.30;;;48.70;;
31808;SDS011;18379;48.208;-1.518;2023-05-20T19:42:48;51.57;;;48.00;;
31808;SDS011;18379;48.208;-1.518;2023-05-20T19:47:49;50.53;;;47.03;;
31808;SDS011;18379;48.208;-1.518;2023-05-20T19:52:50;50.83;;;47.47;;
31808;SDS011;18379;48.208;-1.518;2023-05-20T19:57:50;53.13;;;49.20;;
31808;SDS011;18379;48.208;-1.518;2023-05-20T20:02:52;50.30;;;46.97;;
31808;SDS011;18379;48.208;-1.518;2023-05-20T20:07:53;50.30;;;47.07;;
31808;SDS011;18379;48.208;-1.518;2023-05-20T20:12:54;49.57;;;46.23;;
31808;SDS011;18379;48.208;-1.518;2023-05-20T20:17:55;50.23;;;46.97;;
31808;SDS011;18379;48.208;-1.518;2023-05-20T20:22:56;50.10;;;46.93;;
31808;SDS011;18379;48.208;-1.518;2023-05-20T20:28:02;49.30;;;46.10;;
31808;SDS011;18379;48.208;-1.518;2023-05-20T20:33:07;52.40;;;48.90;;
31808;SDS011;18379;48.208;-1.518;2023-05-20T20:38:08;52.27;;;48.73;;
31808;SDS011;18379;48.208;-1.518;2023-05-20T20:43:10;51.60;;;48.20;;
31808;SDS011;18379;48.208;-1.518;2023-05-20T20:48:16;51.27;;;47.77;;
31808;SDS011;18379;48.208;-1.518;2023-05-20T20:53:17;53.30;;;49.53;;
31808;SDS011;18379;48.208;-1.518;2023-05-20T20:58:18;49.60;;;46.33;;
31808;SDS011;18379;48.208;-1.518;2023-05-20T21:03:22;49.30;;;46.00;;
31808;SDS011;18379;48.208;-1.518;2023-05-20T21:08:28;50.13;;;46.80;;
31808;SDS011;18379;48.208;-1.518;2023-05-20T21:13:30;50.23;;;46.87;;
31808;SDS011;18379;48.208;-1.518;2023-05-20T21:18:31;50.43;;;47.03;;
31808;SDS011;18379;48.208;-1.518;2023-05-20T21:23:32;50.53;;;47.13;;
31808;SDS011;18379;48.208;-1.518;2023-05-20T21:28:34;52.27;;;48.67;;
31808;SDS011;18379;48.208;-1.518;2023-05-20T21:33:37;56.60;;;52.30;;
31808;SDS011;18379;48.208;-1.518;2023-05-20T21:38:46;51.90;;;48.10;;
31808;SDS011;18379;48.208;-1.518;2023-05-20T21:43:47;50.50;;;46.83;;
31808;SDS011;18379;48.208;-1.518;2023-05-20T21:48:48;49.47;;;46.13;;
31808;SDS011;18379;48.208;-1.518;2023-05-20T21:53:49;49.90;;;46.63;;
31808;SDS011;18379;48.208;-1.518;2023-05-20T21:58:53;48.47;;;45.37;;
31808;SDS011;18379;48.208;-1.518;2023-05-20T22:03:55;56.50;;;52.13;;
31808;SDS011;18379;48.208;-1.518;2023-05-20T22:09:00;56.57;;;51.80;;
31808;SDS011;18379;48.208;-1.518;2023-05-20T22:14:11;51.57;;;48.00;;
31808;SDS011;18379;48.208;-1.518;2023-05-20T22:19:15;50.80;;;47.27;;
31808;SDS011;18379;48.208;-1.518;2023-05-20T22:24:16;51.00;;;47.57;;
31808;SDS011;18379;48.208;-1.518;2023-05-20T22:29:17;51.53;;;47.80;;
31808;SDS011;18379;48.208;-1.518;2023-05-20T22:34:18;57.87;;;53.43;;
31808;SDS011;18379;48.208;-1.518;2023-05-20T22:39:19;51.47;;;47.80;;
31808;SDS011;18379;48.208;-1.518;2023-05-20T22:44:20;53.50;;;49.33;;
31808;SDS011;18379;48.208;-1.518;2023-05-20T22:49:21;51.07;;;47.27;;
31808;SDS011;18379;48.208;-1.518;2023-05-20T22:54:22;50.63;;;47.00;;
31808;SDS011;18379;48.208;-1.518;2023-05-20T22:59:24;48.77;;;45.17;;
31808;SDS011;18379;48.208;-1.518;2023-05-20T23:04:25;51.13;;;47.53;;
31808;SDS011;18379;48.208;-1.518;2023-05-20T23:09:26;50.90;;;47.13;;
31808;SDS011;18379;48.208;-1.518;2023-05-20T23:14:27;51.60;;;47.80;;
31808;SDS011;18379;48.208;-1.518;2023-05-20T23:19:28;52.63;;;48.33;;
31808;SDS011;18379;48.208;-1.518;2023-05-20T23:24:29;52.80;;;48.50;;
31808;SDS011;18379;48.208;-1.518;2023-05-20T23:29:30;51.80;;;47.83;;
31808;SDS011;18379;48.208;-1.518;2023-05-20T23:34:30;53.13;;;49.17;;
31808;SDS011;18379;48.208;-1.518;2023-05-20T23:39:31;50.27;;;46.60;;
31808;SDS011;18379;48.208;-1.518;2023-05-20T23:44:33;52.00;;;47.90;;
31808;SDS011;18379;48.208;-1.518;2023-05-20T23:49:33;52.23;;;48.20;;
31808;SDS011;18379;48.208;-1.518;2023-05-20T23:54:34;52.13;;;47.97;;
31808;SDS011;18379;48.208;-1.518;2023-05-20T23:59:35;51.93;;;47.90;;
